sensor_id;sensor_type;location;lat;lon;timestamp;temperature;humidity
20712;DHT22;10517;50.742;4.224;2024-01-25T00:00:17;9.30;99.90
20712;DHT22;10517;50.742;4.224;2024-01-25T00:02:43;9.20;99.90
20712;DHT22;10517;50.742;4.224;2024-01-25T00:05:08;9.10;99.90
20712;DHT22;10517;50.742;4.224;2024-01-25T00:07:34;9.00;99.90
20712;DHT22;10517;50.742;4.224;2024-01-25T00:10:00;8.90;99.90
20712;DHT22;10517;50.742;4.224;2024-01-25T00:12:26;8.80;99.90
20712;DHT22;10517;50.742;4.224;2024-01-25T00:14:52;8.70;99.90
20712;DHT22;10517;50.742;4.224;2024-01-25T00:17:18;8.70;99.90
20712;DHT22;10517;50.742;4.224;2024-01-25T00:19:43;8.60;99.90
20712;DHT22;10517;50.742;4.224;2024-01-25T00:22:09;8.70;99.90
20712;DHT22;10517;50.742;4.224;2024-01-25T00:24:35;8.60;99.90
20712;DHT22;10517;50.742;4.224;2024-01-25T00:27:02;8.70;99.90
20712;DHT22;10517;50.742;4.224;2024-01-25T00:29:29;8.70;99.90
20712;DHT22;10517;50.742;4.224;2024-01-25T00:31:55;8.60;99.90
20712;DHT22;10517;50.742;4.224;2024-01-25T00:34:22;8.60;99.90
20712;DHT22;10517;50.742;4.224;2024-01-25T00:36:47;8.60;99.90
20712;DHT22;10517;50.742;4.224;2024-01-25T00:39:13;8.60;99.90
20712;DHT22;10517;50.742;4.224;2024-01-25T00:41:40;8.60;99.90
20712;DHT22;10517;50.742;4.224;2024-01-25T00:44:09;8.50;99.90
20712;DHT22;10517;50.742;4.224;2024-01-25T00:46:35;8.50;99.90
20712;DHT22;10517;50.742;4.224;2024-01-25T00:49:01;8.40;99.90
20712;DHT22;10517;50.742;4.224;2024-01-25T00:51:27;8.50;99.90
20712;DHT22;10517;50.742;4.224;2024-01-25T00:53:53;8.40;99.90
20712;DHT22;10517;50.742;4.224;2024-01-25T00:56:18;8.30;99.90
20712;DHT22;10517;50.742;4.224;2024-01-25T00:58:44;8.30;99.90
20712;DHT22;10517;50.742;4.224;2024-01-25T01:01:10;8.30;99.90
20712;DHT22;10517;50.742;4.224;2024-01-25T01:03:36;8.30;99.90
20712;DHT22;10517;50.742;4.224;2024-01-25T01:06:02;8.30;99.90
20712;DHT22;10517;50.742;4.224;2024-01-25T01:08:28;8.20;99.90
20712;DHT22;10517;50.742;4.224;2024-01-25T01:10:53;8.20;99.90
20712;DHT22;10517;50.742;4.224;2024-01-25T01:13:19;8.10;99.90
20712;DHT22;10517;50.742;4.224;2024-01-25T01:15:45;8.10;99.90
20712;DHT22;10517;50.742;4.224;2024-01-25T01:18:10;8.00;99.90
20712;DHT22;10517;50.742;4.224;2024-01-25T01:20:36;8.00;99.90
20712;DHT22;10517;50.742;4.224;2024-01-25T01:23:01;8.00;99.90
20712;DHT22;10517;50.742;4.224;2024-01-25T01:25:27;7.90;99.90
20712;DHT22;10517;50.742;4.224;2024-01-25T01:27:52;7.90;99.90
20712;DHT22;10517;50.742;4.224;2024-01-25T01:30:18;7.80;99.90
20712;DHT22;10517;50.742;4.224;2024-01-25T01:32:44;7.70;99.90
20712;DHT22;10517;50.742;4.224;2024-01-25T01:35:09;7.70;99.90
20712;DHT22;10517;50.742;4.224;2024-01-25T01:37:35;7.70;99.90
20712;DHT22;10517;50.742;4.224;2024-01-25T01:40:00;7.50;99.90
20712;DHT22;10517;50.742;4.224;2024-01-25T01:42:27;7.40;99.90
20712;DHT22;10517;50.742;4.224;2024-01-25T01:44:53;7.40;99.90
20712;DHT22;10517;50.742;4.224;2024-01-25T01:47:19;7.50;99.90
20712;DHT22;10517;50.742;4.224;2024-01-25T01:49:45;7.40;99.90
20712;DHT22;10517;50.742;4.224;2024-01-25T01:52:11;7.30;99.90
20712;DHT22;10517;50.742;4.224;2024-01-25T01:54:37;7.30;99.90
20712;DHT22;10517;50.742;4.224;2024-01-25T01:57:03;7.30;99.90
20712;DHT22;10517;50.742;4.224;2024-01-25T01:59:29;7.40;99.90
20712;DHT22;10517;50.742;4.224;2024-01-25T02:01:56;7.40;99.90
20712;DHT22;10517;50.742;4.224;2024-01-25T02:04:21;7.30;99.90
20712;DHT22;10517;50.742;4.224;2024-01-25T02:06:47;7.10;99.90
20712;DHT22;10517;50.742;4.224;2024-01-25T02:09:13;7.00;99.90
20712;DHT22;10517;50.742;4.224;2024-01-25T02:11:39;6.90;99.90
20712;DHT22;10517;50.742;4.224;2024-01-25T02:14:04;6.80;99.90
20712;DHT22;10517;50.742;4.224;2024-01-25T02:16:31;6.80;99.90
20712;DHT22;10517;50.742;4.224;2024-01-25T02:18:57;6.80;99.90
20712;DHT22;10517;50.742;4.224;2024-01-25T02:21:23;6.70;99.90
20712;DHT22;10517;50.742;4.224;2024-01-25T02:23:50;6.70;99.90
20712;DHT22;10517;50.742;4.224;2024-01-25T02:26:16;6.70;99.90
20712;DHT22;10517;50.742;4.224;2024-01-25T02:28:41;6.70;99.90
20712;DHT22;10517;50.742;4.224;2024-01-25T02:31:07;6.60;99.90
20712;DHT22;10517;50.742;4.224;2024-01-25T02:33:32;6.60;99.90
20712;DHT22;10517;50.742;4.224;2024-01-25T02:35:58;6.60;99.90
20712;DHT22;10517;50.742;4.224;2024-01-25T02:38:23;6.50;99.90
20712;DHT22;10517;50.742;4.224;2024-01-25T02:40:49;6.50;99.90
20712;DHT22;10517;50.742;4.224;2024-01-25T02:43:15;6.40;99.90
20712;DHT22;10517;50.742;4.224;2024-01-25T02:45:40;6.30;99.90
20712;DHT22;10517;50.742;4.224;2024-01-25T02:48:06;6.30;99.90
20712;DHT22;10517;50.742;4.224;2024-01-25T02:50:31;6.30;99.90
20712;DHT22;10517;50.742;4.224;2024-01-25T02:52:58;6.40;99.90
20712;DHT22;10517;50.742;4.224;2024-01-25T02:55:23;6.40;99.90
20712;DHT22;10517;50.742;4.224;2024-01-25T02:57:49;6.30;99.90
20712;DHT22;10517;50.742;4.224;2024-01-25T03:00:15;6.30;99.90
20712;DHT22;10517;50.742;4.224;2024-01-25T03:02:40;6.30;99.90
20712;DHT22;10517;50.742;4.224;2024-01-25T03:05:06;6.30;99.90
20712;DHT22;10517;50.742;4.224;2024-01-25T03:07:32;6.30;99.90
20712;DHT22;10517;50.742;4.224;2024-01-25T03:09:57;6.30;99.90
20712;DHT22;10517;50.742;4.224;2024-01-25T03:12:23;6.30;99.90
20712;DHT22;10517;50.742;4.224;2024-01-25T03:14:48;6.30;99.90
20712;DHT22;10517;50.742;4.224;2024-01-25T03:17:14;6.30;99.90
20712;DHT22;10517;50.742;4.224;2024-01-25T03:19:40;6.20;99.90
20712;DHT22;10517;50.742;4.224;2024-01-25T03:22:05;6.10;99.90
20712;DHT22;10517;50.742;4.224;2024-01-25T03:24:31;6.10;99.90
20712;DHT22;10517;50.742;4.224;2024-01-25T03:26:56;6.30;99.90
20712;DHT22;10517;50.742;4.224;2024-01-25T03:29:22;6.20;99.90
20712;DHT22;10517;50.742;4.224;2024-01-25T03:31:47;6.10;99.90
20712;DHT22;10517;50.742;4.224;2024-01-25T03:34:13;6.00;99.90
20712;DHT22;10517;50.742;4.224;2024-01-25T03:36:40;5.90;99.90
20712;DHT22;10517;50.742;4.224;2024-01-25T03:39:06;5.90;99.90
20712;DHT22;10517;50.742;4.224;2024-01-25T03:41:32;5.90;99.90
20712;DHT22;10517;50.742;4.224;2024-01-25T03:43:58;5.90;99.90
20712;DHT22;10517;50.742;4.224;2024-01-25T03:46:23;5.80;99.90
20712;DHT22;10517;50.742;4.224;2024-01-25T03:48:49;5.80;99.90
20712;DHT22;10517;50.742;4.224;2024-01-25T03:51:14;5.70;99.90
20712;DHT22;10517;50.742;4.224;2024-01-25T03:53:40;5.70;99.90
20712;DHT22;10517;50.742;4.224;2024-01-25T03:56:14;5.60;99.90
20712;DHT22;10517;50.742;4.224;2024-01-25T03:58:42;5.60;99.90
20712;DHT22;10517;50.742;4.224;2024-01-25T04:01:08;5.50;99.90
20712;DHT22;10517;50.742;4.224;2024-01-25T04:03:34;5.50;99.90
20712;DHT22;10517;50.742;4.224;2024-01-25T04:06:00;5.50;99.90
20712;DHT22;10517;50.742;4.224;2024-01-25T04:08:25;5.50;99.90
20712;DHT22;10517;50.742;4.224;2024-01-25T04:10:51;5.50;99.90
20712;DHT22;10517;50.742;4.224;2024-01-25T04:13:16;5.50;99.90
20712;DHT22;10517;50.742;4.224;2024-01-25T04:15:42;5.60;99.90
20712;DHT22;10517;50.742;4.224;2024-01-25T04:18:08;5.60;99.90
20712;DHT22;10517;50.742;4.224;2024-01-25T04:20:34;5.70;99.90
20712;DHT22;10517;50.742;4.224;2024-01-25T04:22:59;5.70;99.90
20712;DHT22;10517;50.742;4.224;2024-01-25T04:25:25;5.70;99.90
20712;DHT22;10517;50.742;4.224;2024-01-25T04:27:50;5.70;99.90
20712;DHT22;10517;50.742;4.224;2024-01-25T04:30:16;5.70;99.90
20712;DHT22;10517;50.742;4.224;2024-01-25T04:32:42;5.60;99.90
20712;DHT22;10517;50.742;4.224;2024-01-25T04:35:10;5.60;99.90
20712;DHT22;10517;50.742;4.224;2024-01-25T04:37:36;5.70;99.90
20712;DHT22;10517;50.742;4.224;2024-01-25T04:40:02;5.70;99.90
20712;DHT22;10517;50.742;4.224;2024-01-25T04:42:28;5.70;99.90
20712;DHT22;10517;50.742;4.224;2024-01-25T04:44:54;5.60;99.90
20712;DHT22;10517;50.742;4.224;2024-01-25T04:47:19;5.60;99.90
20712;DHT22;10517;50.742;4.224;2024-01-25T04:49:45;5.70;99.90
20712;DHT22;10517;50.742;4.224;2024-01-25T04:52:10;5.70;99.90
20712;DHT22;10517;50.742;4.224;2024-01-25T04:54:36;5.70;99.90
20712;DHT22;10517;50.742;4.224;2024-01-25T04:57:01;5.70;99.90
20712;DHT22;10517;50.742;4.224;2024-01-25T04:59:32;5.60;99.90
20712;DHT22;10517;50.742;4.224;2024-01-25T05:01:58;5.70;99.90
20712;DHT22;10517;50.742;4.224;2024-01-25T05:04:23;5.70;99.90
20712;DHT22;10517;50.742;4.224;2024-01-25T05:06:49;5.70;99.90
20712;DHT22;10517;50.742;4.224;2024-01-25T05:09:14;5.60;99.90
20712;DHT22;10517;50.742;4.224;2024-01-25T05:11:40;5.60;99.90
20712;DHT22;10517;50.742;4.224;2024-01-25T05:14:06;5.60;99.90
20712;DHT22;10517;50.742;4.224;2024-01-25T05:16:32;5.60;99.90
20712;DHT22;10517;50.742;4.224;2024-01-25T05:18:57;5.70;99.90
20712;DHT22;10517;50.742;4.224;2024-01-25T05:21:23;5.80;99.90
20712;DHT22;10517;50.742;4.224;2024-01-25T05:23:49;5.80;99.90
20712;DHT22;10517;50.742;4.224;2024-01-25T05:26:15;5.80;99.90
20712;DHT22;10517;50.742;4.224;2024-01-25T05:28:41;5.80;99.90
20712;DHT22;10517;50.742;4.224;2024-01-25T05:31:06;5.80;99.90
20712;DHT22;10517;50.742;4.224;2024-01-25T05:33:41;5.80;99.90
20712;DHT22;10517;50.742;4.224;2024-01-25T05:36:07;5.80;99.90
20712;DHT22;10517;50.742;4.224;2024-01-25T05:38:32;5.90;99.90
20712;DHT22;10517;50.742;4.224;2024-01-25T05:40:58;5.90;99.90
20712;DHT22;10517;50.742;4.224;2024-01-25T05:43:24;5.90;99.90
20712;DHT22;10517;50.742;4.224;2024-01-25T05:45:50;5.90;99.90
20712;DHT22;10517;50.742;4.224;2024-01-25T05:48:16;6.10;99.90
20712;DHT22;10517;50.742;4.224;2024-01-25T05:50:41;6.10;99.90
20712;DHT22;10517;50.742;4.224;2024-01-25T05:53:07;6.10;99.90
20712;DHT22;10517;50.742;4.224;2024-01-25T05:55:32;5.90;99.90
20712;DHT22;10517;50.742;4.224;2024-01-25T05:57:58;5.90;99.90
20712;DHT22;10517;50.742;4.224;2024-01-25T06:00:24;6.00;99.90
20712;DHT22;10517;50.742;4.224;2024-01-25T06:02:49;5.90;99.90
20712;DHT22;10517;50.742;4.224;2024-01-25T06:05:15;5.90;99.90
20712;DHT22;10517;50.742;4.224;2024-01-25T06:07:40;6.00;99.90
20712;DHT22;10517;50.742;4.224;2024-01-25T06:10:07;6.10;99.90
20712;DHT22;10517;50.742;4.224;2024-01-25T06:12:33;6.20;99.90
20712;DHT22;10517;50.742;4.224;2024-01-25T06:14:58;6.30;99.90
20712;DHT22;10517;50.742;4.224;2024-01-25T06:17:24;6.40;99.90
20712;DHT22;10517;50.742;4.224;2024-01-25T06:19:50;6.60;99.90
20712;DHT22;10517;50.742;4.224;2024-01-25T06:22:16;6.50;99.90
20712;DHT22;10517;50.742;4.224;2024-01-25T06:24:42;6.50;99.90
20712;DHT22;10517;50.742;4.224;2024-01-25T06:27:09;6.50;99.90
20712;DHT22;10517;50.742;4.224;2024-01-25T06:29:35;6.60;99.90
20712;DHT22;10517;50.742;4.224;2024-01-25T06:32:00;6.70;99.90
20712;DHT22;10517;50.742;4.224;2024-01-25T06:34:26;6.80;99.90
20712;DHT22;10517;50.742;4.224;2024-01-25T06:36:52;6.70;99.90
20712;DHT22;10517;50.742;4.224;2024-01-25T06:39:17;6.60;99.90
20712;DHT22;10517;50.742;4.224;2024-01-25T06:41:43;6.70;99.90
20712;DHT22;10517;50.742;4.224;2024-01-25T06:44:08;6.70;99.90
20712;DHT22;10517;50.742;4.224;2024-01-25T06:46:34;6.60;99.90
20712;DHT22;10517;50.742;4.224;2024-01-25T06:49:00;6.70;99.90
20712;DHT22;10517;50.742;4.224;2024-01-25T06:51:26;6.80;99.90
20712;DHT22;10517;50.742;4.224;2024-01-25T06:53:51;6.80;99.90
20712;DHT22;10517;50.742;4.224;2024-01-25T06:56:17;6.80;99.90
20712;DHT22;10517;50.742;4.224;2024-01-25T06:58:42;6.70;99.90
20712;DHT22;10517;50.742;4.224;2024-01-25T07:01:08;6.70;99.90
20712;DHT22;10517;50.742;4.224;2024-01-25T07:03:33;6.80;99.90
20712;DHT22;10517;50.742;4.224;2024-01-25T07:05:59;6.90;99.90
20712;DHT22;10517;50.742;4.224;2024-01-25T07:08:24;7.10;99.90
20712;DHT22;10517;50.742;4.224;2024-01-25T07:10:50;7.20;99.90
20712;DHT22;10517;50.742;4.224;2024-01-25T07:13:17;7.20;99.90
20712;DHT22;10517;50.742;4.224;2024-01-25T07:15:42;7.10;99.90
20712;DHT22;10517;50.742;4.224;2024-01-25T07:18:08;7.10;99.90
20712;DHT22;10517;50.742;4.224;2024-01-25T07:20:34;7.10;99.90
20712;DHT22;10517;50.742;4.224;2024-01-25T07:22:59;7.20;99.90
20712;DHT22;10517;50.742;4.224;2024-01-25T07:25:25;7.10;99.90
20712;DHT22;10517;50.742;4.224;2024-01-25T07:27:50;7.20;99.90
20712;DHT22;10517;50.742;4.224;2024-01-25T07:30:16;7.30;99.90
20712;DHT22;10517;50.742;4.224;2024-01-25T07:32:42;7.40;99.90
20712;DHT22;10517;50.742;4.224;2024-01-25T07:35:08;7.30;99.90
20712;DHT22;10517;50.742;4.224;2024-01-25T07:37:38;7.20;99.90
20712;DHT22;10517;50.742;4.224;2024-01-25T07:40:04;7.30;99.90
20712;DHT22;10517;50.742;4.224;2024-01-25T07:42:30;7.40;99.90
20712;DHT22;10517;50.742;4.224;2024-01-25T07:44:55;7.40;99.90
20712;DHT22;10517;50.742;4.224;2024-01-25T07:47:21;7.50;99.90
20712;DHT22;10517;50.742;4.224;2024-01-25T07:49:46;7.40;99.90
20712;DHT22;10517;50.742;4.224;2024-01-25T07:52:12;7.40;99.90
20712;DHT22;10517;50.742;4.224;2024-01-25T07:54:37;7.40;99.90
20712;DHT22;10517;50.742;4.224;2024-01-25T07:57:03;7.40;99.90
20712;DHT22;10517;50.742;4.224;2024-01-25T07:59:29;7.30;99.90
20712;DHT22;10517;50.742;4.224;2024-01-25T08:01:54;7.40;99.90
20712;DHT22;10517;50.742;4.224;2024-01-25T08:04:20;7.60;99.90
20712;DHT22;10517;50.742;4.224;2024-01-25T08:06:45;7.50;99.90
20712;DHT22;10517;50.742;4.224;2024-01-25T08:09:11;7.40;99.90
20712;DHT22;10517;50.742;4.224;2024-01-25T08:11:37;7.30;99.90
20712;DHT22;10517;50.742;4.224;2024-01-25T08:14:02;7.40;99.90
20712;DHT22;10517;50.742;4.224;2024-01-25T08:16:29;7.30;99.90
20712;DHT22;10517;50.742;4.224;2024-01-25T08:18:55;7.30;99.90
20712;DHT22;10517;50.742;4.224;2024-01-25T08:21:20;7.40;99.90
20712;DHT22;10517;50.742;4.224;2024-01-25T08:23:46;7.60;99.90
20712;DHT22;10517;50.742;4.224;2024-01-25T08:26:12;7.70;99.90
20712;DHT22;10517;50.742;4.224;2024-01-25T08:28:41;7.70;99.90
20712;DHT22;10517;50.742;4.224;2024-01-25T08:31:10;7.70;99.90
20712;DHT22;10517;50.742;4.224;2024-01-25T08:33:36;7.70;99.90
20712;DHT22;10517;50.742;4.224;2024-01-25T08:36:02;7.60;99.90
20712;DHT22;10517;50.742;4.224;2024-01-25T08:38:28;7.40;99.90
20712;DHT22;10517;50.742;4.224;2024-01-25T08:40:53;7.50;99.90
20712;DHT22;10517;50.742;4.224;2024-01-25T08:43:19;7.60;99.90
20712;DHT22;10517;50.742;4.224;2024-01-25T08:45:45;7.80;99.90
20712;DHT22;10517;50.742;4.224;2024-01-25T08:48:10;7.80;99.90
20712;DHT22;10517;50.742;4.224;2024-01-25T08:50:36;7.70;99.90
20712;DHT22;10517;50.742;4.224;2024-01-25T08:53:02;7.70;99.90
20712;DHT22;10517;50.742;4.224;2024-01-25T08:55:27;7.90;99.90
20712;DHT22;10517;50.742;4.224;2024-01-25T08:57:53;7.80;99.90
20712;DHT22;10517;50.742;4.224;2024-01-25T09:00:19;7.80;99.90
20712;DHT22;10517;50.742;4.224;2024-01-25T09:02:45;7.70;99.90
20712;DHT22;10517;50.742;4.224;2024-01-25T09:05:11;7.80;99.90
20712;DHT22;10517;50.742;4.224;2024-01-25T09:07:37;7.80;99.90
20712;DHT22;10517;50.742;4.224;2024-01-25T09:10:03;7.90;99.90
20712;DHT22;10517;50.742;4.224;2024-01-25T09:12:30;8.10;99.90
20712;DHT22;10517;50.742;4.224;2024-01-25T09:14:55;8.20;99.90
20712;DHT22;10517;50.742;4.224;2024-01-25T09:17:21;8.20;99.90
20712;DHT22;10517;50.742;4.224;2024-01-25T09:19:48;8.30;99.90
20712;DHT22;10517;50.742;4.224;2024-01-25T09:22:15;8.40;99.90
20712;DHT22;10517;50.742;4.224;2024-01-25T09:24:42;8.50;99.90
20712;DHT22;10517;50.742;4.224;2024-01-25T09:27:08;8.50;99.90
20712;DHT22;10517;50.742;4.224;2024-01-25T09:29:33;8.50;99.90
20712;DHT22;10517;50.742;4.224;2024-01-25T09:31:59;8.50;99.90
20712;DHT22;10517;50.742;4.224;2024-01-25T09:34:25;8.40;99.90
20712;DHT22;10517;50.742;4.224;2024-01-25T09:36:51;8.50;99.90
20712;DHT22;10517;50.742;4.224;2024-01-25T09:39:17;8.60;99.90
20712;DHT22;10517;50.742;4.224;2024-01-25T09:41:43;8.40;99.90
20712;DHT22;10517;50.742;4.224;2024-01-25T09:44:09;8.50;99.90
20712;DHT22;10517;50.742;4.224;2024-01-25T09:46:35;8.50;99.90
20712;DHT22;10517;50.742;4.224;2024-01-25T09:49:01;8.60;99.90
20712;DHT22;10517;50.742;4.224;2024-01-25T09:51:29;8.60;99.90
20712;DHT22;10517;50.742;4.224;2024-01-25T09:53:58;8.60;99.90
20712;DHT22;10517;50.742;4.224;2024-01-25T09:56:24;8.70;99.90
20712;DHT22;10517;50.742;4.224;2024-01-25T09:58:51;8.60;99.90
20712;DHT22;10517;50.742;4.224;2024-01-25T10:01:17;8.60;99.90
20712;DHT22;10517;50.742;4.224;2024-01-25T10:03:44;8.60;99.90
20712;DHT22;10517;50.742;4.224;2024-01-25T10:06:12;8.50;99.90
20712;DHT22;10517;50.742;4.224;2024-01-25T10:08:37;8.60;99.90
20712;DHT22;10517;50.742;4.224;2024-01-25T10:11:04;8.70;99.90
20712;DHT22;10517;50.742;4.224;2024-01-25T10:13:29;8.90;99.90
20712;DHT22;10517;50.742;4.224;2024-01-25T10:15:56;9.20;99.90
20712;DHT22;10517;50.742;4.224;2024-01-25T10:18:22;9.30;99.90
20712;DHT22;10517;50.742;4.224;2024-01-25T10:20:48;9.10;99.90
20712;DHT22;10517;50.742;4.224;2024-01-25T10:23:14;9.20;99.90
20712;DHT22;10517;50.742;4.224;2024-01-25T10:25:40;9.50;99.90
20712;DHT22;10517;50.742;4.224;2024-01-25T10:28:06;9.30;99.90
20712;DHT22;10517;50.742;4.224;2024-01-25T10:30:34;9.20;99.90
20712;DHT22;10517;50.742;4.224;2024-01-25T10:33:00;9.10;99.90
20712;DHT22;10517;50.742;4.224;2024-01-25T10:35:27;9.20;99.90
20712;DHT22;10517;50.742;4.224;2024-01-25T10:37:53;9.40;99.90
20712;DHT22;10517;50.742;4.224;2024-01-25T10:40:19;9.40;99.90
20712;DHT22;10517;50.742;4.224;2024-01-25T10:42:45;9.50;99.90
20712;DHT22;10517;50.742;4.224;2024-01-25T10:45:11;9.60;99.90
20712;DHT22;10517;50.742;4.224;2024-01-25T10:47:37;9.60;99.90
20712;DHT22;10517;50.742;4.224;2024-01-25T10:50:09;9.60;99.90
20712;DHT22;10517;50.742;4.224;2024-01-25T10:52:37;9.50;99.90
20712;DHT22;10517;50.742;4.224;2024-01-25T10:55:04;9.60;99.90
20712;DHT22;10517;50.742;4.224;2024-01-25T10:57:39;9.60;99.90
20712;DHT22;10517;50.742;4.224;2024-01-25T11:00:13;9.70;99.90
20712;DHT22;10517;50.742;4.224;2024-01-25T11:02:40;9.60;99.90
20712;DHT22;10517;50.742;4.224;2024-01-25T11:05:11;9.60;99.90
20712;DHT22;10517;50.742;4.224;2024-01-25T11:07:44;9.60;99.90
20712;DHT22;10517;50.742;4.224;2024-01-25T11:10:22;9.60;99.90
20712;DHT22;10517;50.742;4.224;2024-01-25T11:12:59;9.50;99.90
20712;DHT22;10517;50.742;4.224;2024-01-25T11:15:33;9.60;99.90
20712;DHT22;10517;50.742;4.224;2024-01-25T11:18:01;9.60;99.90
20712;DHT22;10517;50.742;4.224;2024-01-25T11:20:28;9.70;99.90
20712;DHT22;10517;50.742;4.224;2024-01-25T11:22:59;9.80;99.90
20712;DHT22;10517;50.742;4.224;2024-01-25T11:25:30;9.90;99.90
20712;DHT22;10517;50.742;4.224;2024-01-25T11:27:56;10.10;99.90
20712;DHT22;10517;50.742;4.224;2024-01-25T11:30:22;10.20;99.90
20712;DHT22;10517;50.742;4.224;2024-01-25T11:32:48;10.30;99.90
20712;DHT22;10517;50.742;4.224;2024-01-25T11:35:14;10.40;99.90
20712;DHT22;10517;50.742;4.224;2024-01-25T11:37:46;10.30;99.90
20712;DHT22;10517;50.742;4.224;2024-01-25T11:40:12;10.30;99.90
20712;DHT22;10517;50.742;4.224;2024-01-25T11:42:39;10.50;99.90
20712;DHT22;10517;50.742;4.224;2024-01-25T11:45:10;10.60;99.90
20712;DHT22;10517;50.742;4.224;2024-01-25T11:47:39;10.70;99.90
20712;DHT22;10517;50.742;4.224;2024-01-25T11:50:06;10.70;99.90
20712;DHT22;10517;50.742;4.224;2024-01-25T11:52:33;10.60;99.90
20712;DHT22;10517;50.742;4.224;2024-01-25T11:55:06;10.70;99.90
20712;DHT22;10517;50.742;4.224;2024-01-25T11:57:38;10.60;99.90
20712;DHT22;10517;50.742;4.224;2024-01-25T12:00:10;10.60;99.90
20712;DHT22;10517;50.742;4.224;2024-01-25T12:02:38;10.50;99.90
20712;DHT22;10517;50.742;4.224;2024-01-25T12:05:04;10.50;99.90
20712;DHT22;10517;50.742;4.224;2024-01-25T12:07:31;10.40;99.90
20712;DHT22;10517;50.742;4.224;2024-01-25T12:10:03;10.40;99.90
20712;DHT22;10517;50.742;4.224;2024-01-25T12:12:29;10.40;99.90
20712;DHT22;10517;50.742;4.224;2024-01-25T12:14:59;10.50;99.90
20712;DHT22;10517;50.742;4.224;2024-01-25T12:17:28;10.30;99.90
20712;DHT22;10517;50.742;4.224;2024-01-25T12:19:57;10.30;99.90
20712;DHT22;10517;50.742;4.224;2024-01-25T12:22:24;10.40;99.90
20712;DHT22;10517;50.742;4.224;2024-01-25T12:24:55;10.40;99.90
20712;DHT22;10517;50.742;4.224;2024-01-25T12:27:21;10.40;99.90
20712;DHT22;10517;50.742;4.224;2024-01-25T12:29:48;10.40;99.90
20712;DHT22;10517;50.742;4.224;2024-01-25T12:32:14;10.30;99.90
20712;DHT22;10517;50.742;4.224;2024-01-25T12:34:40;10.30;99.90
20712;DHT22;10517;50.742;4.224;2024-01-25T12:37:07;10.30;99.90
20712;DHT22;10517;50.742;4.224;2024-01-25T12:39:32;10.20;99.90
20712;DHT22;10517;50.742;4.224;2024-01-25T12:41:58;10.20;99.90
20712;DHT22;10517;50.742;4.224;2024-01-25T12:44:24;10.20;99.90
20712;DHT22;10517;50.742;4.224;2024-01-25T12:46:50;10.20;99.90
20712;DHT22;10517;50.742;4.224;2024-01-25T12:49:15;10.30;99.90
20712;DHT22;10517;50.742;4.224;2024-01-25T12:51:41;10.40;99.90
20712;DHT22;10517;50.742;4.224;2024-01-25T12:54:07;10.50;99.90
20712;DHT22;10517;50.742;4.224;2024-01-25T12:56:33;10.50;99.90
20712;DHT22;10517;50.742;4.224;2024-01-25T12:58:58;10.60;99.90
20712;DHT22;10517;50.742;4.224;2024-01-25T13:01:24;10.60;99.90
20712;DHT22;10517;50.742;4.224;2024-01-25T13:03:49;10.60;99.90
20712;DHT22;10517;50.742;4.224;2024-01-25T13:06:15;10.60;99.90
20712;DHT22;10517;50.742;4.224;2024-01-25T13:08:41;10.60;99.90
20712;DHT22;10517;50.742;4.224;2024-01-25T13:11:07;10.50;99.90
20712;DHT22;10517;50.742;4.224;2024-01-25T13:13:32;10.50;99.90
20712;DHT22;10517;50.742;4.224;2024-01-25T13:15:58;10.60;99.90
20712;DHT22;10517;50.742;4.224;2024-01-25T13:18:23;10.60;99.90
20712;DHT22;10517;50.742;4.224;2024-01-25T13:20:49;10.60;99.90
20712;DHT22;10517;50.742;4.224;2024-01-25T13:23:14;10.60;99.90
20712;DHT22;10517;50.742;4.224;2024-01-25T13:25:40;10.60;99.90
20712;DHT22;10517;50.742;4.224;2024-01-25T13:28:05;10.80;99.90
20712;DHT22;10517;50.742;4.224;2024-01-25T13:30:31;10.80;99.90
20712;DHT22;10517;50.742;4.224;2024-01-25T13:32:56;10.70;99.90
20712;DHT22;10517;50.742;4.224;2024-01-25T13:35:22;10.80;99.90
20712;DHT22;10517;50.742;4.224;2024-01-25T13:37:48;10.80;99.90
20712;DHT22;10517;50.742;4.224;2024-01-25T13:40:14;10.90;99.90
20712;DHT22;10517;50.742;4.224;2024-01-25T13:42:39;11.00;99.90
20712;DHT22;10517;50.742;4.224;2024-01-25T13:45:06;11.00;99.90
20712;DHT22;10517;50.742;4.224;2024-01-25T13:47:32;11.00;99.90
20712;DHT22;10517;50.742;4.224;2024-01-25T13:49:57;11.00;99.90
20712;DHT22;10517;50.742;4.224;2024-01-25T13:52:23;11.00;99.90
20712;DHT22;10517;50.742;4.224;2024-01-25T13:54:48;11.00;99.90
20712;DHT22;10517;50.742;4.224;2024-01-25T13:57:15;11.10;99.90
20712;DHT22;10517;50.742;4.224;2024-01-25T13:59:40;11.10;99.90
20712;DHT22;10517;50.742;4.224;2024-01-25T14:02:06;11.10;99.90
20712;DHT22;10517;50.742;4.224;2024-01-25T14:04:32;11.10;99.90
20712;DHT22;10517;50.742;4.224;2024-01-25T14:06:57;11.20;99.90
20712;DHT22;10517;50.742;4.224;2024-01-25T14:09:23;11.30;99.90
20712;DHT22;10517;50.742;4.224;2024-01-25T14:11:48;11.40;99.90
20712;DHT22;10517;50.742;4.224;2024-01-25T14:14:14;11.40;99.90
20712;DHT22;10517;50.742;4.224;2024-01-25T14:16:39;11.50;99.90
20712;DHT22;10517;50.742;4.224;2024-01-25T14:19:05;11.50;99.90
20712;DHT22;10517;50.742;4.224;2024-01-25T14:21:33;11.40;99.90
20712;DHT22;10517;50.742;4.224;2024-01-25T14:23:59;11.30;99.90
20712;DHT22;10517;50.742;4.224;2024-01-25T14:26:24;11.30;99.90
20712;DHT22;10517;50.742;4.224;2024-01-25T14:28:50;11.20;99.90
20712;DHT22;10517;50.742;4.224;2024-01-25T14:31:16;11.20;99.90
20712;DHT22;10517;50.742;4.224;2024-01-25T14:33:41;11.20;99.90
20712;DHT22;10517;50.742;4.224;2024-01-25T14:36:07;11.10;99.90
20712;DHT22;10517;50.742;4.224;2024-01-25T14:38:32;11.20;99.90
20712;DHT22;10517;50.742;4.224;2024-01-25T14:40:59;11.30;99.90
20712;DHT22;10517;50.742;4.224;2024-01-25T14:43:25;11.40;99.90
20712;DHT22;10517;50.742;4.224;2024-01-25T14:45:50;11.50;99.90
20712;DHT22;10517;50.742;4.224;2024-01-25T14:48:16;11.50;99.90
20712;DHT22;10517;50.742;4.224;2024-01-25T14:50:42;11.50;99.90
20712;DHT22;10517;50.742;4.224;2024-01-25T14:53:08;11.50;99.90
20712;DHT22;10517;50.742;4.224;2024-01-25T14:55:33;11.50;99.90
20712;DHT22;10517;50.742;4.224;2024-01-25T14:57:59;11.50;99.90
20712;DHT22;10517;50.742;4.224;2024-01-25T15:00:24;11.50;99.90
20712;DHT22;10517;50.742;4.224;2024-01-25T15:02:50;11.50;99.90
20712;DHT22;10517;50.742;4.224;2024-01-25T15:05:16;11.60;99.90
20712;DHT22;10517;50.742;4.224;2024-01-25T15:07:41;11.60;99.90
20712;DHT22;10517;50.742;4.224;2024-01-25T15:10:08;11.60;99.90
20712;DHT22;10517;50.742;4.224;2024-01-25T15:12:34;11.70;99.90
20712;DHT22;10517;50.742;4.224;2024-01-25T15:14:59;11.60;99.90
20712;DHT22;10517;50.742;4.224;2024-01-25T15:17:25;11.50;99.90
20712;DHT22;10517;50.742;4.224;2024-01-25T15:19:50;11.40;99.90
20712;DHT22;10517;50.742;4.224;2024-01-25T15:22:16;11.40;99.90
20712;DHT22;10517;50.742;4.224;2024-01-25T15:24:41;11.40;99.90
20712;DHT22;10517;50.742;4.224;2024-01-25T15:27:07;11.50;99.90
20712;DHT22;10517;50.742;4.224;2024-01-25T15:29:32;11.40;99.90
20712;DHT22;10517;50.742;4.224;2024-01-25T15:31:58;11.30;99.90
20712;DHT22;10517;50.742;4.224;2024-01-25T15:34:24;11.30;99.90